sensor_id;sensor_type;location;lat;lon;timestamp;temperature;humidity
23237;DHT22;11787;52.018;8.570;2022-11-09T00:02:31;14.40;99.90
23237;DHT22;11787;52.018;8.570;2022-11-09T00:05:01;14.40;99.90
23237;DHT22;11787;52.018;8.570;2022-11-09T00:07:35;14.40;99.90
23237;DHT22;11787;52.018;8.570;2022-11-09T00:10:00;14.40;99.90
23237;DHT22;11787;52.018;8.570;2022-11-09T00:12:41;14.40;99.90
23237;DHT22;11787;52.018;8.570;2022-11-09T00:15:23;14.40;99.90
23237;DHT22;11787;52.018;8.570;2022-11-09T00:18:00;14.40;99.90
23237;DHT22;11787;52.018;8.570;2022-11-09T00:20:37;14.50;99.90
23237;DHT22;11787;52.018;8.570;2022-11-09T00:23:12;14.50;99.90
23237;DHT22;11787;52.018;8.570;2022-11-09T00:25:59;14.50;99.90
23237;DHT22;11787;52.018;8.570;2022-11-09T00:28:37;14.50;99.90
23237;DHT22;11787;52.018;8.570;2022-11-09T00:31:17;14.50;99.90
23237;DHT22;11787;52.018;8.570;2022-11-09T00:37:04;14.50;99.90
23237;DHT22;11787;52.018;8.570;2022-11-09T00:39:43;14.50;99.90
23237;DHT22;11787;52.018;8.570;2022-11-09T00:42:14;14.50;99.90
23237;DHT22;11787;52.018;8.570;2022-11-09T00:44:45;14.50;99.90
23237;DHT22;11787;52.018;8.570;2022-11-09T00:47:21;14.60;99.90
23237;DHT22;11787;52.018;8.570;2022-11-09T00:53:06;14.60;99.90
23237;DHT22;11787;52.018;8.570;2022-11-09T00:55:59;14.60;99.90
23237;DHT22;11787;52.018;8.570;2022-11-09T00:58:43;14.60;99.90
23237;DHT22;11787;52.018;8.570;2022-11-09T01:01:18;14.60;99.90
23237;DHT22;11787;52.018;8.570;2022-11-09T01:03:54;14.60;99.90
23237;DHT22;11787;52.018;8.570;2022-11-09T01:06:26;14.60;99.90
23237;DHT22;11787;52.018;8.570;2022-11-09T01:09:02;14.60;99.90
23237;DHT22;11787;52.018;8.570;2022-11-09T01:11:39;14.60;99.90
23237;DHT22;11787;52.018;8.570;2022-11-09T01:14:04;14.60;99.90
23237;DHT22;11787;52.018;8.570;2022-11-09T01:16:33;14.60;99.90
23237;DHT22;11787;52.018;8.570;2022-11-09T01:19:07;14.60;99.90
23237;DHT22;11787;52.018;8.570;2022-11-09T01:21:41;14.60;99.90
23237;DHT22;11787;52.018;8.570;2022-11-09T01:24:36;14.60;99.90
23237;DHT22;11787;52.018;8.570;2022-11-09T01:27:09;14.60;99.90
23237;DHT22;11787;52.018;8.570;2022-11-09T01:29:43;14.60;99.90
23237;DHT22;11787;52.018;8.570;2022-11-09T01:32:11;14.60;99.90
23237;DHT22;11787;52.018;8.570;2022-11-09T01:34:46;14.70;99.90
23237;DHT22;11787;52.018;8.570;2022-11-09T01:37:14;14.60;99.90
23237;DHT22;11787;52.018;8.570;2022-11-09T01:39:49;14.60;99.90
23237;DHT22;11787;52.018;8.570;2022-11-09T01:42:26;14.60;99.90
23237;DHT22;11787;52.018;8.570;2022-11-09T01:45:24;14.60;99.90
23237;DHT22;11787;52.018;8.570;2022-11-09T01:51:37;14.60;99.90
23237;DHT22;11787;52.018;8.570;2022-11-09T01:57:35;14.60;99.90
23237;DHT22;11787;52.018;8.570;2022-11-09T02:00:20;14.60;99.90
23237;DHT22;11787;52.018;8.570;2022-11-09T02:03:14;14.60;99.90
23237;DHT22;11787;52.018;8.570;2022-11-09T02:05:52;14.60;99.90
23237;DHT22;11787;52.018;8.570;2022-11-09T02:11:42;14.60;99.90
23237;DHT22;11787;52.018;8.570;2022-11-09T02:14:14;14.60;99.90
23237;DHT22;11787;52.018;8.570;2022-11-09T02:17:08;14.60;99.90
23237;DHT22;11787;52.018;8.570;2022-11-09T02:19:37;14.60;99.90
23237;DHT22;11787;52.018;8.570;2022-11-09T02:22:08;14.60;99.90
23237;DHT22;11787;52.018;8.570;2022-11-09T02:24:42;14.50;99.90
23237;DHT22;11787;52.018;8.570;2022-11-09T02:27:18;14.60;99.90
23237;DHT22;11787;52.018;8.570;2022-11-09T02:29:59;14.50;99.90
23237;DHT22;11787;52.018;8.570;2022-11-09T02:32:43;14.50;99.90
23237;DHT22;11787;52.018;8.570;2022-11-09T02:35:12;14.50;99.90
23237;DHT22;11787;52.018;8.570;2022-11-09T02:38:07;14.50;99.90
23237;DHT22;11787;52.018;8.570;2022-11-09T02:40:58;14.50;99.90
23237;DHT22;11787;52.018;8.570;2022-11-09T02:43:29;14.50;99.90
23237;DHT22;11787;52.018;8.570;2022-11-09T02:46:10;14.50;99.90
23237;DHT22;11787;52.018;8.570;2022-11-09T02:49:05;14.40;99.90
23237;DHT22;11787;52.018;8.570;2022-11-09T02:51:41;14.40;99.90
23237;DHT22;11787;52.018;8.570;2022-11-09T02:54:16;14.40;99.90
23237;DHT22;11787;52.018;8.570;2022-11-09T02:56:44;14.40;99.90
23237;DHT22;11787;52.018;8.570;2022-11-09T02:59:18;14.50;99.90
23237;DHT22;11787;52.018;8.570;2022-11-09T03:01:58;14.50;99.90
23237;DHT22;11787;52.018;8.570;2022-11-09T03:04:47;14.40;99.90
23237;DHT22;11787;52.018;8.570;2022-11-09T03:07:19;14.40;99.90
23237;DHT22;11787;52.018;8.570;2022-11-09T03:09:50;14.50;99.90
23237;DHT22;11787;52.018;8.570;2022-11-09T03:12:34;14.40;99.90
23237;DHT22;11787;52.018;8.570;2022-11-09T03:15:08;14.40;99.90
23237;DHT22;11787;52.018;8.570;2022-11-09T03:17:52;14.40;99.90
23237;DHT22;11787;52.018;8.570;2022-11-09T03:20:38;14.40;99.90
23237;DHT22;11787;52.018;8.570;2022-11-09T03:23:35;14.40;99.90
23237;DHT22;11787;52.018;8.570;2022-11-09T03:26:09;14.30;99.90
23237;DHT22;11787;52.018;8.570;2022-11-09T03:28:34;14.30;99.90
23237;DHT22;11787;52.018;8.570;2022-11-09T03:31:08;14.30;99.90
23237;DHT22;11787;52.018;8.570;2022-11-09T03:33:47;14.30;99.90
23237;DHT22;11787;52.018;8.570;2022-11-09T03:36:22;14.30;99.90
23237;DHT22;11787;52.018;8.570;2022-11-09T03:38:56;14.30;99.90
23237;DHT22;11787;52.018;8.570;2022-11-09T03:41:28;14.30;99.90
23237;DHT22;11787;52.018;8.570;2022-11-09T03:44:16;14.30;99.90
23237;DHT22;11787;52.018;8.570;2022-11-09T03:46:53;14.30;99.90
23237;DHT22;11787;52.018;8.570;2022-11-09T03:49:31;14.30;99.90
23237;DHT22;11787;52.018;8.570;2022-11-09T03:52:02;14.30;99.90
23237;DHT22;11787;52.018;8.570;2022-11-09T03:54:33;14.20;99.90
23237;DHT22;11787;52.018;8.570;2022-11-09T03:57:07;14.30;99.90
23237;DHT22;11787;52.018;8.570;2022-11-09T03:59:53;14.20;99.90
23237;DHT22;11787;52.018;8.570;2022-11-09T04:02:29;14.30;99.90
23237;DHT22;11787;52.018;8.570;2022-11-09T04:05:01;14.20;99.90
23237;DHT22;11787;52.018;8.570;2022-11-09T04:07:33;14.20;99.90
23237;DHT22;11787;52.018;8.570;2022-11-09T04:09:59;14.20;99.90
23237;DHT22;11787;52.018;8.570;2022-11-09T04:12:29;14.10;99.90
23237;DHT22;11787;52.018;8.570;2022-11-09T04:15:14;14.10;99.90
23237;DHT22;11787;52.018;8.570;2022-11-09T04:17:40;14.10;99.90
23237;DHT22;11787;52.018;8.570;2022-11-09T04:20:17;14.10;99.90
23237;DHT22;11787;52.018;8.570;2022-11-09T04:22:54;14.10;99.90
23237;DHT22;11787;52.018;8.570;2022-11-09T04:25:38;14.10;99.90
23237;DHT22;11787;52.018;8.570;2022-11-09T04:28:19;14.10;99.90
23237;DHT22;11787;52.018;8.570;2022-11-09T04:31:00;14.10;99.90
23237;DHT22;11787;52.018;8.570;2022-11-09T04:33:36;14.10;99.90
23237;DHT22;11787;52.018;8.570;2022-11-09T04:36:22;14.10;99.90
23237;DHT22;11787;52.018;8.570;2022-11-09T04:39:08;14.10;99.90
23237;DHT22;11787;52.018;8.570;2022-11-09T04:44:44;14.10;99.90
23237;DHT22;11787;52.018;8.570;2022-11-09T04:47:16;14.10;99.90
23237;DHT22;11787;52.018;8.570;2022-11-09T04:49:47;14.10;99.90
23237;DHT22;11787;52.018;8.570;2022-11-09T04:52:15;14.10;99.90
23237;DHT22;11787;52.018;8.570;2022-11-09T04:54:46;14.00;99.90
23237;DHT22;11787;52.018;8.570;2022-11-09T04:57:32;14.00;99.90
23237;DHT22;11787;52.018;8.570;2022-11-09T04:59:57;14.00;99.90
23237;DHT22;11787;52.018;8.570;2022-11-09T05:02:38;14.00;99.90
23237;DHT22;11787;52.018;8.570;2022-11-09T05:05:16;14.00;99.90
23237;DHT22;11787;52.018;8.570;2022-11-09T05:08:00;14.00;99.90
23237;DHT22;11787;52.018;8.570;2022-11-09T05:10:41;14.00;99.90
23237;DHT22;11787;52.018;8.570;2022-11-09T05:13:32;14.00;99.90
23237;DHT22;11787;52.018;8.570;2022-11-09T05:16:04;14.00;99.90
23237;DHT22;11787;52.018;8.570;2022-11-09T05:18:49;14.00;99.90
23237;DHT22;11787;52.018;8.570;2022-11-09T05:21:18;14.00;99.90
23237;DHT22;11787;52.018;8.570;2022-11-09T05:24:00;14.00;99.90
23237;DHT22;11787;52.018;8.570;2022-11-09T05:26:35;14.00;99.90
23237;DHT22;11787;52.018;8.570;2022-11-09T05:29:08;14.00;99.90
23237;DHT22;11787;52.018;8.570;2022-11-09T05:31:42;14.00;99.90
23237;DHT22;11787;52.018;8.570;2022-11-09T05:34:19;14.00;99.90
23237;DHT22;11787;52.018;8.570;2022-11-09T05:36:53;14.00;99.90
23237;DHT22;11787;52.018;8.570;2022-11-09T05:39:22;14.00;99.90
23237;DHT22;11787;52.018;8.570;2022-11-09T05:42:11;14.00;99.90
23237;DHT22;11787;52.018;8.570;2022-11-09T05:44:40;14.00;99.90
23237;DHT22;11787;52.018;8.570;2022-11-09T05:47:15;13.90;99.90
23237;DHT22;11787;52.018;8.570;2022-11-09T05:49:53;13.90;99.90
23237;DHT22;11787;52.018;8.570;2022-11-09T05:52:21;13.90;99.90
23237;DHT22;11787;52.018;8.570;2022-11-09T05:55:01;13.90;99.90
23237;DHT22;11787;52.018;8.570;2022-11-09T05:57:38;13.90;99.90
23237;DHT22;11787;52.018;8.570;2022-11-09T06:00:17;13.90;99.90
23237;DHT22;11787;52.018;8.570;2022-11-09T06:03:10;13.90;99.90
23237;DHT22;11787;52.018;8.570;2022-11-09T06:05:44;13.90;99.90
23237;DHT22;11787;52.018;8.570;2022-11-09T06:08:18;14.00;99.90
23237;DHT22;11787;52.018;8.570;2022-11-09T06:10:44;14.00;99.90
23237;DHT22;11787;52.018;8.570;2022-11-09T06:13:12;14.00;99.90
23237;DHT22;11787;52.018;8.570;2022-11-09T06:15:43;14.00;99.90
23237;DHT22;11787;52.018;8.570;2022-11-09T06:18:33;14.00;99.90
23237;DHT22;11787;52.018;8.570;2022-11-09T06:21:08;14.00;99.90
23237;DHT22;11787;52.018;8.570;2022-11-09T06:23:46;14.00;99.90
23237;DHT22;11787;52.018;8.570;2022-11-09T06:26:20;14.00;99.90
23237;DHT22;11787;52.018;8.570;2022-11-09T06:28:48;14.00;99.90
23237;DHT22;11787;52.018;8.570;2022-11-09T06:31:15;13.90;99.90
23237;DHT22;11787;52.018;8.570;2022-11-09T06:33:48;13.90;99.90
23237;DHT22;11787;52.018;8.570;2022-11-09T06:36:19;13.90;99.90
23237;DHT22;11787;52.018;8.570;2022-11-09T06:38:55;13.90;99.90
23237;DHT22;11787;52.018;8.570;2022-11-09T06:41:29;13.90;99.90
23237;DHT22;11787;52.018;8.570;2022-11-09T06:44:04;13.90;99.90
23237;DHT22;11787;52.018;8.570;2022-11-09T06:46:33;13.90;99.90
23237;DHT22;11787;52.018;8.570;2022-11-09T06:49:07;13.90;99.90
23237;DHT22;11787;52.018;8.570;2022-11-09T06:51:36;13.90;99.90
23237;DHT22;11787;52.018;8.570;2022-11-09T06:54:04;13.90;99.90
23237;DHT22;11787;52.018;8.570;2022-11-09T06:56:35;13.90;99.90
23237;DHT22;11787;52.018;8.570;2022-11-09T06:59:01;13.90;99.90
23237;DHT22;11787;52.018;8.570;2022-11-09T07:01:32;13.90;99.90
23237;DHT22;11787;52.018;8.570;2022-11-09T07:04:00;13.90;99.90
23237;DHT22;11787;52.018;8.570;2022-11-09T07:06:32;13.90;99.90
23237;DHT22;11787;52.018;8.570;2022-11-09T07:09:07;13.90;99.90
23237;DHT22;11787;52.018;8.570;2022-11-09T07:11:47;13.90;99.90
23237;DHT22;11787;52.018;8.570;2022-11-09T07:14:18;13.90;99.90
23237;DHT22;11787;52.018;8.570;2022-11-09T07:16:48;13.90;99.90
23237;DHT22;11787;52.018;8.570;2022-11-09T07:19:19;13.90;99.90
23237;DHT22;11787;52.018;8.570;2022-11-09T07:21:51;13.90;99.90
23237;DHT22;11787;52.018;8.570;2022-11-09T07:24:22;13.90;99.90
23237;DHT22;11787;52.018;8.570;2022-11-09T07:26:56;13.90;99.90
23237;DHT22;11787;52.018;8.570;2022-11-09T07:29:24;13.90;99.90
23237;DHT22;11787;52.018;8.570;2022-11-09T07:31:58;13.90;99.90
23237;DHT22;11787;52.018;8.570;2022-11-09T07:34:29;14.00;99.90
23237;DHT22;11787;52.018;8.570;2022-11-09T07:37:05;13.90;99.90
23237;DHT22;11787;52.018;8.570;2022-11-09T07:39:30;14.00;99.90
23237;DHT22;11787;52.018;8.570;2022-11-09T07:42:01;14.00;99.90
23237;DHT22;11787;52.018;8.570;2022-11-09T07:44:29;14.00;99.90
23237;DHT22;11787;52.018;8.570;2022-11-09T07:47:00;13.90;99.90
23237;DHT22;11787;52.018;8.570;2022-11-09T07:49:28;14.00;99.90
23237;DHT22;11787;52.018;8.570;2022-11-09T07:52:07;14.00;99.90
23237;DHT22;11787;52.018;8.570;2022-11-09T07:54:33;14.00;99.90
23237;DHT22;11787;52.018;8.570;2022-11-09T07:57:12;14.00;99.90
23237;DHT22;11787;52.018;8.570;2022-11-09T07:59:47;14.00;99.90
23237;DHT22;11787;52.018;8.570;2022-11-09T08:05:33;14.10;99.90
23237;DHT22;11787;52.018;8.570;2022-11-09T08:08:10;14.10;99.90
23237;DHT22;11787;52.018;8.570;2022-11-09T08:10:44;14.00;99.90
23237;DHT22;11787;52.018;8.570;2022-11-09T08:13:18;14.00;99.90
23237;DHT22;11787;52.018;8.570;2022-11-09T08:15:49;14.00;99.90
23237;DHT22;11787;52.018;8.570;2022-11-09T08:18:23;14.00;99.90
23237;DHT22;11787;52.018;8.570;2022-11-09T08:20:56;14.00;99.90
23237;DHT22;11787;52.018;8.570;2022-11-09T08:23:31;14.00;99.90
23237;DHT22;11787;52.018;8.570;2022-11-09T08:26:04;14.00;99.90
23237;DHT22;11787;52.018;8.570;2022-11-09T08:28:33;14.10;99.90
23237;DHT22;11787;52.018;8.570;2022-11-09T08:31:10;14.10;99.90
23237;DHT22;11787;52.018;8.570;2022-11-09T08:34:12;14.10;99.90
23237;DHT22;11787;52.018;8.570;2022-11-09T08:36:53;14.10;99.90
23237;DHT22;11787;52.018;8.570;2022-11-09T08:39:24;14.10;99.90
23237;DHT22;11787;52.018;8.570;2022-11-09T08:41:55;14.10;99.90
23237;DHT22;11787;52.018;8.570;2022-11-09T08:44:46;14.10;99.90
23237;DHT22;11787;52.018;8.570;2022-11-09T08:47:19;14.10;99.90
23237;DHT22;11787;52.018;8.570;2022-11-09T08:49:50;14.10;99.90
23237;DHT22;11787;52.018;8.570;2022-11-09T08:52:42;14.00;99.90
23237;DHT22;11787;52.018;8.570;2022-11-09T08:55:14;14.10;99.90
23237;DHT22;11787;52.018;8.570;2022-11-09T08:57:42;14.10;99.90
23237;DHT22;11787;52.018;8.570;2022-11-09T09:00:20;14.10;99.90
23237;DHT22;11787;52.018;8.570;2022-11-09T09:02:54;14.10;99.90
23237;DHT22;11787;52.018;8.570;2022-11-09T09:05:27;14.10;99.90
23237;DHT22;11787;52.018;8.570;2022-11-09T09:08:04;14.10;99.90
23237;DHT22;11787;52.018;8.570;2022-11-09T09:10:47;14.10;99.90
23237;DHT22;11787;52.018;8.570;2022-11-09T09:13:25;14.00;99.90
23237;DHT22;11787;52.018;8.570;2022-11-09T09:16:09;14.00;99.90
23237;DHT22;11787;52.018;8.570;2022-11-09T09:18:47;14.00;99.90
23237;DHT22;11787;52.018;8.570;2022-11-09T09:21:24;14.00;99.90
23237;DHT22;11787;52.018;8.570;2022-11-09T09:23:52;14.00;99.90
23237;DHT22;11787;52.018;8.570;2022-11-09T09:26:27;14.00;99.90
23237;DHT22;11787;52.018;8.570;2022-11-09T09:29:00;14.00;99.90
23237;DHT22;11787;52.018;8.570;2022-11-09T09:31:33;14.00;99.90
23237;DHT22;11787;52.018;8.570;2022-11-09T09:34:08;14.00;99.90
23237;DHT22;11787;52.018;8.570;2022-11-09T09:36:40;14.10;99.90
23237;DHT22;11787;52.018;8.570;2022-11-09T09:39:26;14.10;99.90
23237;DHT22;11787;52.018;8.570;2022-11-09T09:42:07;14.20;99.90
23237;DHT22;11787;52.018;8.570;2022-11-09T09:44:47;14.20;99.90
23237;DHT22;11787;52.018;8.570;2022-11-09T09:50:21;14.20;99.90
23237;DHT22;11787;52.018;8.570;2022-11-09T09:56:32;14.20;99.90
23237;DHT22;11787;52.018;8.570;2022-11-09T09:59:09;14.20;99.90
23237;DHT22;11787;52.018;8.570;2022-11-09T10:01:54;14.20;99.90
23237;DHT22;11787;52.018;8.570;2022-11-09T10:04:35;14.30;99.90
23237;DHT22;11787;52.018;8.570;2022-11-09T10:07:17;14.30;99.90
23237;DHT22;11787;52.018;8.570;2022-11-09T10:09:52;14.40;99.90
23237;DHT22;11787;52.018;8.570;2022-11-09T10:13:20;14.50;99.90
23237;DHT22;11787;52.018;8.570;2022-11-09T10:15:41;14.60;99.90
23237;DHT22;11787;52.018;8.570;2022-11-09T10:30:59;14.80;99.90
23237;DHT22;11787;52.018;8.570;2022-11-09T10:33:27;14.90;99.90
23237;DHT22;11787;52.018;8.570;2022-11-09T10:38:47;14.90;99.90
23237;DHT22;11787;52.018;8.570;2022-11-09T10:41:30;14.90;99.90
23237;DHT22;11787;52.018;8.570;2022-11-09T10:44:07;14.80;99.90
23237;DHT22;11787;52.018;8.570;2022-11-09T10:47:08;14.80;99.90
23237;DHT22;11787;52.018;8.570;2022-11-09T10:49:38;14.90;99.90
23237;DHT22;11787;52.018;8.570;2022-11-09T10:52:35;14.90;99.90
23237;DHT22;11787;52.018;8.570;2022-11-09T10:55:27;14.90;99.90
23237;DHT22;11787;52.018;8.570;2022-11-09T10:58:32;14.90;99.90
23237;DHT22;11787;52.018;8.570;2022-11-09T11:01:16;14.90;99.90
23237;DHT22;11787;52.018;8.570;2022-11-09T11:03:54;14.80;99.90
23237;DHT22;11787;52.018;8.570;2022-11-09T11:06:27;14.80;99.90
23237;DHT22;11787;52.018;8.570;2022-11-09T11:29:46;15.20;99.90
23237;DHT22;11787;52.018;8.570;2022-11-09T11:32:16;15.20;99.90
23237;DHT22;11787;52.018;8.570;2022-11-09T11:34:47;15.20;99.90
23237;DHT22;11787;52.018;8.570;2022-11-09T11:40:40;15.30;99.90
23237;DHT22;11787;52.018;8.570;2022-11-09T11:43:28;15.20;99.90
23237;DHT22;11787;52.018;8.570;2022-11-09T11:46:21;15.20;99.90
23237;DHT22;11787;52.018;8.570;2022-11-09T12:00:17;15.40;99.90
23237;DHT22;11787;52.018;8.570;2022-11-09T12:05:40;15.40;99.90
23237;DHT22;11787;52.018;8.570;2022-11-09T12:10:48;15.30;99.90
23237;DHT22;11787;52.018;8.570;2022-11-09T12:23:24;15.10;99.90
23237;DHT22;11787;52.018;8.570;2022-11-09T12:26:18;15.10;99.90
23237;DHT22;11787;52.018;8.570;2022-11-09T12:29:15;15.00;99.90
23237;DHT22;11787;52.018;8.570;2022-11-09T12:37:55;15.00;99.90
23237;DHT22;11787;52.018;8.570;2022-11-09T12:40:37;14.90;99.90
23237;DHT22;11787;52.018;8.570;2022-11-09T12:43:47;14.90;99.90
23237;DHT22;11787;52.018;8.570;2022-11-09T12:46:25;15.00;99.90
23237;DHT22;11787;52.018;8.570;2022-11-09T12:49:05;15.20;99.90
23237;DHT22;11787;52.018;8.570;2022-11-09T12:51:38;15.60;99.90
23237;DHT22;11787;52.018;8.570;2022-11-09T12:54:08;16.10;99.90
23237;DHT22;11787;52.018;8.570;2022-11-09T12:56:42;15.90;99.90
23237;DHT22;11787;52.018;8.570;2022-11-09T13:01:55;15.20;99.90
23237;DHT22;11787;52.018;8.570;2022-11-09T13:04:29;15.10;99.90
23237;DHT22;11787;52.018;8.570;2022-11-09T13:09:56;14.90;99.90
23237;DHT22;11787;52.018;8.570;2022-11-09T13:13:00;14.90;99.90
23237;DHT22;11787;52.018;8.570;2022-11-09T13:15:36;14.90;99.90
23237;DHT22;11787;52.018;8.570;2022-11-09T13:20:52;14.90;99.90
23237;DHT22;11787;52.018;8.570;2022-11-09T13:23:37;14.90;99.90
23237;DHT22;11787;52.018;8.570;2022-11-09T13:26:04;14.90;99.90
23237;DHT22;11787;52.018;8.570;2022-11-09T13:31:01;15.00;99.90
23237;DHT22;11787;52.018;8.570;2022-11-09T13:33:32;15.00;99.90
23237;DHT22;11787;52.018;8.570;2022-11-09T13:38:38;15.10;99.90
23237;DHT22;11787;52.018;8.570;2022-11-09T13:44:34;15.10;99.90
23237;DHT22;11787;52.018;8.570;2022-11-09T13:47:18;15.00;99.90
23237;DHT22;11787;52.018;8.570;2022-11-09T13:49:51;15.00;99.90
23237;DHT22;11787;52.018;8.570;2022-11-09T13:52:48;15.00;99.90
23237;DHT22;11787;52.018;8.570;2022-11-09T13:55:35;15.00;99.90
23237;DHT22;11787;52.018;8.570;2022-11-09T13:58:34;15.00;99.90
23237;DHT22;11787;52.018;8.570;2022-11-09T14:01:04;14.90;99.90
23237;DHT22;11787;52.018;8.570;2022-11-09T14:03:33;14.90;99.90
23237;DHT22;11787;52.018;8.570;2022-11-09T14:06:04;14.90;99.90
23237;DHT22;11787;52.018;8.570;2022-11-09T14:08:52;14.90;99.90
23237;DHT22;11787;52.018;8.570;2022-11-09T14:14:07;14.90;99.90
23237;DHT22;11787;52.018;8.570;2022-11-09T14:22:17;14.90;99.90
23237;DHT22;11787;52.018;8.570;2022-11-09T14:24:50;14.90;99.90
23237;DHT22;11787;52.018;8.570;2022-11-09T14:27:36;14.90;99.90
23237;DHT22;11787;52.018;8.570;2022-11-09T14:30:19;14.90;99.90
23237;DHT22;11787;52.018;8.570;2022-11-09T14:32:52;14.80;99.90
23237;DHT22;11787;52.018;8.570;2022-11-09T14:35:32;14.80;99.90
23237;DHT22;11787;52.018;8.570;2022-11-09T14:38:17;14.80;99.90
23237;DHT22;11787;52.018;8.570;2022-11-09T14:40:51;14.80;99.90
23237;DHT22;11787;52.018;8.570;2022-11-09T14:46:15;14.70;99.90
23237;DHT22;11787;52.018;8.570;2022-11-09T14:49:00;14.70;99.90
23237;DHT22;11787;52.018;8.570;2022-11-09T14:51:38;14.70;99.90
23237;DHT22;11787;52.018;8.570;2022-11-09T14:54:14;14.60;99.90
23237;DHT22;11787;52.018;8.570;2022-11-09T14:56:54;14.60;99.90
23237;DHT22;11787;52.018;8.570;2022-11-09T14:59:32;14.60;99.90
23237;DHT22;11787;52.018;8.570;2022-11-09T15:02:11;14.50;99.90
23237;DHT22;11787;52.018;8.570;2022-11-09T15:07:53;14.40;99.90
23237;DHT22;11787;52.018;8.570;2022-11-09T15:10:22;14.40;99.90
23237;DHT22;11787;52.018;8.570;2022-11-09T15:13:01;14.40;99.90
23237;DHT22;11787;52.018;8.570;2022-11-09T15:15:31;14.40;99.90
23237;DHT22;11787;52.018;8.570;2022-11-09T15:17:59;14.30;99.90
23237;DHT22;11787;52.018;8.570;2022-11-09T15:20:31;14.30;99.90
23237;DHT22;11787;52.018;8.570;2022-11-09T15:26:00;14.20;99.90
23237;DHT22;11787;52.018;8.570;2022-11-09T15:28:51;14.20;99.90
23237;DHT22;11787;52.018;8.570;2022-11-09T15:31:20;14.10;99.90
23237;DHT22;11787;52.018;8.570;2022-11-09T15:33:55;14.10;99.90
23237;DHT22;11787;52.018;8.570;2022-11-09T15:36:34;14.10;99.90
23237;DHT22;11787;52.018;8.570;2022-11-09T15:41:35;14.10;99.90
23237;DHT22;11787;52.018;8.570;2022-11-09T15:44:12;14.10;99.90
23237;DHT22;11787;52.018;8.570;2022-11-09T15:46:50;14.10;99.90
23237;DHT22;11787;52.018;8.570;2022-11-09T15:49:23;14.10;99.90
23237;DHT22;11787;52.018;8.570;2022-11-09T15:51:52;14.10;99.90
23237;DHT22;11787;52.018;8.570;2022-11-09T15:54:24;14.10;99.90
23237;DHT22;11787;52.018;8.570;2022-11-09T15:56:56;14.10;99.90
23237;DHT22;11787;52.018;8.570;2022-11-09T15:59:33;14.10;99.90
23237;DHT22;11787;52.018;8.570;2022-11-09T16:02:02;14.10;99.90
23237;DHT22;11787;52.018;8.570;2022-11-09T16:04:30;14.10;99.90
23237;DHT22;11787;52.018;8.570;2022-11-09T16:06:59;14.00;99.90
23237;DHT22;11787;52.018;8.570;2022-11-09T16:09:33;14.00;99.90
23237;DHT22;11787;52.018;8.570;2022-11-09T16:12:22;13.90;99.90
23237;DHT22;11787;52.018;8.570;2022-11-09T16:14:56;13.90;99.90
23237;DHT22;11787;52.018;8.570;2022-11-09T16:17:34;13.90;99.90
23237;DHT22;11787;52.018;8.570;2022-11-09T16:19:59;13.90;99.90
23237;DHT22;11787;52.018;8.570;2022-11-09T16:22:31;13.90;99.90
23237;DHT22;11787;52.018;8.570;2022-11-09T16:25:03;13.90;99.90
23237;DHT22;11787;52.018;8.570;2022-11-09T16:27:31;13.90;99.90
23237;DHT22;11787;52.018;8.570;2022-11-09T16:30:16;13.90;99.90
23237;DHT22;11787;52.018;8.570;2022-11-09T16:32:44;13.80;99.90
23237;DHT22;11787;52.018;8.570;2022-11-09T16:35:16;13.80;99.90
23237;DHT22;11787;52.018;8.570;2022-11-09T16:37:42;13.80;99.90
23237;DHT22;11787;52.018;8.570;2022-11-09T16:40:09;13.80;99.90
23237;DHT22;11787;52.018;8.570;2022-11-09T16:42:38;13.70;99.90
23237;DHT22;11787;52.018;8.570;2022-11-09T16:45:09;13.70;99.90
23237;DHT22;11787;52.018;8.570;2022-11-09T16:47:41;13.70;99.90
23237;DHT22;11787;52.018;8.570;2022-11-09T16:50:10;13.70;99.90
23237;DHT22;11787;52.018;8.570;2022-11-09T16:52:40;13.70;99.90
23237;DHT22;11787;52.018;8.570;2022-11-09T16:55:11;13.60;99.90
23237;DHT22;11787;52.018;8.570;2022-11-09T16:57:37;13.60;99.90
23237;DHT22;11787;52.018;8.570;2022-11-09T17:00:06;13.60;99.90
23237;DHT22;11787;52.018;8.570;2022-11-09T17:02:36;13.50;99.90
23237;DHT22;11787;52.018;8.570;2022-11-09T17:05:11;13.50;99.90
23237;DHT22;11787;52.018;8.570;2022-11-09T17:07:36;13.50;99.90
23237;DHT22;11787;52.018;8.570;2022-11-09T17:10:07;13.50;99.90
23237;DHT22;11787;52.018;8.570;2022-11-09T17:12:39;13.50;99.90
23237;DHT22;11787;52.018;8.570;2022-11-09T17:15:14;13.50;99.90
23237;DHT22;11787;52.018;8.570;2022-11-09T17:17:42;13.50;99.90
23237;DHT22;11787;52.018;8.570;2022-11-09T17:20:15;13.40;99.90
23237;DHT22;11787;52.018;8.570;2022-11-09T17:22:44;13.40;99.90
23237;DHT22;11787;52.018;8.570;2022-11-09T17:25:24;13.40;99.90
23237;DHT22;11787;52.018;8.570;2022-11-09T17:27:52;13.40;99.90
23237;DHT22;11787;52.018;8.570;2022-11-09T17:30:21;13.40;99.90
23237;DHT22;11787;52.018;8.570;2022-11-09T17:32:48;13.30;99.90
23237;DHT22;11787;52.018;8.570;2022-11-09T17:35:14;13.30;99.90
23237;DHT22;11787;52.018;8.570;2022-11-09T17:38:05;13.30;99.90
23237;DHT22;11787;52.018;8.570;2022-11-09T17:41:10;13.30;99.90
23237;DHT22;11787;52.018;8.570;2022-11-09T17:43:53;13.30;99.90
23237;DHT22;11787;52.018;8.570;2022-11-09T17:46:27;13.20;99.90
23237;DHT22;11787;52.018;8.570;2022-11-09T17:48:53;13.20;99.90
23237;DHT22;11787;52.018;8.570;2022-11-09T17:51:19;13.20;99.90
23237;DHT22;11787;52.018;8.570;2022-11-09T17:53:47;13.10;99.90
23237;DHT22;11787;52.018;8.570;2022-11-09T17:56:30;13.10;99.90
23237;DHT22;11787;52.018;8.570;2022-11-09T17:58:58;13.00;99.90
23237;DHT22;11787;52.018;8.570;2022-11-09T18:01:44;13.00;99.90
23237;DHT22;11787;52.018;8.570;2022-11-09T18:04:13;13.00;99.90
23237;DHT22;11787;52.018;8.570;2022-11-09T18:06:44;12.90;99.90
23237;DHT22;11787;52.018;8.570;2022-11-09T18:09:13;12.90;99.90
23237;DHT22;11787;52.018;8.570;2022-11-09T18:11:59;12.90;99.90
23237;DHT22;11787;52.018;8.570;2022-11-09T18:14:26;12.90;99.90
23237;DHT22;11787;52.018;8.570;2022-11-09T18:17:15;12.90;99.90
23237;DHT22;11787;52.018;8.570;2022-11-09T18:19:51;12.90;99.90
23237;DHT22;11787;52.018;8.570;2022-11-09T18:22:25;12.90;99.90
23237;DHT22;11787;52.018;8.570;2022-11-09T18:24:59;12.90;99.90
23237;DHT22;11787;52.018;8.570;2022-11-09T18:27:24;12.80;99.90
23237;DHT22;11787;52.018;8.570;2022-11-09T18:29:55;12.80;99.90
23237;DHT22;11787;52.018;8.570;2022-11-09T18:32:23;12.80;99.90
23237;DHT22;11787;52.018;8.570;2022-11-09T18:34:49;12.80;99.90
23237;DHT22;11787;52.018;8.570;2022-11-09T18:37:14;12.80;99.90
23237;DHT22;11787;52.018;8.570;2022-11-09T18:39:40;12.70;99.90
23237;DHT22;11787;52.018;8.570;2022-11-09T18:42:05;12.80;99.90
23237;DHT22;11787;52.018;8.570;2022-11-09T18:44:33;12.80;99.90